Time;durP1;ratioP1;P1;durP2;ratioP2;P2;SDS_P1;SDS_P2;PMS_P1;PMS_P2;Temp;Humidity;BMP_temperature;BMP_pressure;BME280_temperature;BME280_humidity;BME280_pressure;Samples;Min_cycle;Max_cycle;Signal;HPM_P1;HPM_P2
2021/09/18 00:02:25;;;;;;;11.50;8.20;;;16.50;99.90;;;;;;5091128;28;20024;-69
2021/09/18 00:04:50;;;;;;;14.27;8.43;;;16.60;99.90;;;;;;5089985;28;20028;-70
2021/09/18 00:07:16;;;;;;;10.57;7.75;;;16.50;99.90;;;;;;5092571;28;20039;-70
2021/09/18 00:09:42;;;;;;;12.57;8.20;;;16.50;99.90;;;;;;5092015;28;20059;-71
2021/09/18 00:12:08;;;;;;;10.88;9.05;;;16.40;99.90;;;;;;5090991;28;20036;-70
2021/09/18 00:14:37;;;;;;;11.63;8.23;;;16.40;99.90;;;;;;5090767;28;20052;-70
2021/09/18 00:17:03;;;;;;;10.07;8.05;;;16.30;99.90;;;;;;5092472;28;20024;-70
2021/09/18 00:19:29;;;;;;;10.57;8.07;;;16.30;99.90;;;;;;5090819;28;20035;-70
2021/09/18 00:21:54;;;;;;;11.73;8.82;;;16.20;99.90;;;;;;5091559;28;20316;-70
2021/09/18 00:24:20;;;;;;;11.20;8.20;;;16.30;99.90;;;;;;5092029;28;20144;-70
2021/09/18 00:26:45;;;;;;;9.82;8.82;;;16.30;99.90;;;;;;5091528;28;20127;-71
2021/09/18 00:29:11;;;;;;;10.80;8.55;;;16.20;99.90;;;;;;5092507;28;20047;-71
2021/09/18 00:31:37;;;;;;;12.95;9.55;;;16.10;99.90;;;;;;5090206;28;20085;-71
2021/09/18 00:34:02;;;;;;;10.05;8.40;;;16.10;99.90;;;;;;5091855;28;20189;-69
2021/09/18 00:36:28;;;;;;;10.65;9.45;;;16.10;99.90;;;;;;5092040;28;20147;-69
2021/09/18 00:38:54;;;;;;;12.23;8.65;;;16.10;99.90;;;;;;5091802;28;20476;-70
2021/09/18 00:41:19;;;;;;;12.10;7.85;;;16.10;99.90;;;;;;5090435;28;20031;-69
2021/09/18 00:43:50;;;;;;;9.85;8.15;;;16.10;99.90;;;;;;5091078;28;20031;-70
2021/09/18 00:46:15;;;;;;;11.20;8.30;;;16.20;99.90;;;;;;5091843;28;20028;-70
2021/09/18 00:48:41;;;;;;;9.75;8.50;;;16.20;99.90;;;;;;5089609;28;20077;-70
2021/09/18 00:51:07;;;;;;;10.88;9.52;;;16.10;99.90;;;;;;5091241;28;20063;-69
2021/09/18 00:53:33;;;;;;;11.80;8.27;;;16.00;99.90;;;;;;5091122;28;20169;-69
2021/09/18 00:55:59;;;;;;;8.85;7.95;;;16.10;99.90;;;;;;5089546;28;20074;-69
2021/09/18 00:58:25;;;;;;;10.20;7.60;;;16.10;99.90;;;;;;5091677;28;20145;-69
2021/09/18 01:00:51;;;;;;;9.43;7.55;;;16.10;99.90;;;;;;5090971;28;20116;-70
2021/09/18 01:03:16;;;;;;;15.38;8.10;;;16.10;99.90;;;;;;5091306;28;20020;-70
2021/09/18 01:05:42;;;;;;;9.18;7.38;;;16.00;99.90;;;;;;5089491;28;20032;-70
2021/09/18 01:08:11;;;;;;;10.38;7.72;;;16.00;99.90;;;;;;5091557;28;20036;-70
2021/09/18 01:10:38;;;;;;;13.60;8.52;;;16.00;99.90;;;;;;5091021;28;20054;-70
2021/09/18 01:13:15;;;;;;;11.45;8.68;;;15.90;99.90;;;;;;5090025;28;20028;-70
2021/09/18 01:15:42;;;;;;;8.27;7.47;;;15.90;99.90;;;;;;5090684;28;20022;-70
2021/09/18 01:18:09;;;;;;;11.20;7.55;;;15.90;99.90;;;;;;5089834;28;20052;-70
2021/09/18 01:20:36;;;;;;;12.88;8.40;;;15.80;99.90;;;;;;5091474;28;20106;-70
2021/09/18 01:23:06;;;;;;;11.13;8.07;;;15.80;99.90;;;;;;5090525;28;20039;-70
2021/09/18 01:25:34;;;;;;;11.63;7.90;;;15.80;99.90;;;;;;5089699;28;20040;-70
2021/09/18 01:28:01;;;;;;;9.10;8.02;;;15.70;99.90;;;;;;5090116;28;20032;-70
2021/09/18 01:30:30;;;;;;;13.20;8.32;;;15.70;99.90;;;;;;5089577;28;20162;-69
2021/09/18 01:32:57;;;;;;;10.15;7.93;;;15.60;99.90;;;;;;5090061;28;20032;-69
2021/09/18 01:35:23;;;;;;;10.85;7.63;;;15.70;99.90;;;;;;5090938;28;20028;-69
2021/09/18 01:37:49;;;;;;;11.68;7.97;;;15.70;99.90;;;;;;5088953;28;20206;-69
2021/09/18 01:40:27;;;;;;;10.45;7.38;;;15.80;99.90;;;;;;5090811;28;20469;-69
2021/09/18 01:42:54;;;;;;;8.13;7.32;;;15.80;99.90;;;;;;5088037;28;20149;-70
2021/09/18 01:45:20;;;;;;;11.10;7.75;;;15.70;99.90;;;;;;5075106;28;20424;-70
2021/09/18 01:47:57;;;;;;;9.30;7.57;;;15.70;99.90;;;;;;5071587;28;20032;-70
2021/09/18 01:50:34;;;;;;;11.73;8.20;;;15.70;99.90;;;;;;5070923;28;20100;-70
2021/09/18 01:53:03;;;;;;;10.88;8.20;;;15.70;99.90;;;;;;5069586;28;20242;-70
2021/09/18 01:55:29;;;;;;;10.32;7.88;;;15.60;99.90;;;;;;5070464;28;20032;-70
2021/09/18 01:57:57;;;;;;;11.55;8.23;;;15.60;99.90;;;;;;5068262;28;20035;-70
2021/09/18 02:00:24;;;;;;;9.32;7.90;;;15.60;99.90;;;;;;5070460;28;20064;-70
2021/09/18 02:02:50;;;;;;;10.70;8.20;;;15.60;99.90;;;;;;5069866;28;20031;-70
2021/09/18 02:05:19;;;;;;;10.75;8.52;;;15.50;99.90;;;;;;5070948;28;20538;-70
2021/09/18 02:07:44;;;;;;;10.88;8.18;;;15.40;99.90;;;;;;5073963;28;20158;-70
2021/09/18 02:10:14;;;;;;;11.77;7.75;;;15.40;99.90;;;;;;5074548;28;20450;-70
2021/09/18 02:12:40;;;;;;;9.20;8.25;;;15.40;99.90;;;;;;5074513;28;20378;-70
2021/09/18 02:15:07;;;;;;;9.98;7.70;;;15.40;99.90;;;;;;5073543;28;20020;-70
2021/09/18 02:17:33;;;;;;;8.10;7.30;;;15.40;99.90;;;;;;5073142;28;20024;-70
2021/09/18 02:19:59;;;;;;;11.15;8.23;;;15.50;99.90;;;;;;5073367;28;20031;-70
2021/09/18 02:22:25;;;;;;;14.85;7.40;;;15.40;99.90;;;;;;5073851;28;20390;-70
2021/09/18 02:24:50;;;;;;;11.55;8.45;;;15.40;99.90;;;;;;5073779;28;20362;-69
2021/09/18 02:27:16;;;;;;;9.45;8.52;;;15.40;99.90;;;;;;5074090;28;20040;-69
2021/09/18 02:29:42;;;;;;;10.02;8.30;;;15.30;99.90;;;;;;5073619;28;20511;-71
2021/09/18 02:32:08;;;;;;;9.57;7.43;;;15.30;99.90;;;;;;5073042;28;20103;-70
2021/09/18 02:34:34;;;;;;;9.60;7.55;;;15.30;99.90;;;;;;5072763;28;20039;-69
2021/09/18 02:36:59;;;;;;;11.27;7.82;;;15.30;99.90;;;;;;5073323;28;20028;-70
2021/09/18 02:39:25;;;;;;;8.30;7.45;;;15.30;99.90;;;;;;5074283;28;20067;-70
2021/09/18 02:41:51;;;;;;;8.75;7.45;;;15.30;99.90;;;;;;5073823;28;20031;-69
2021/09/18 02:44:16;;;;;;;8.18;7.35;;;15.30;99.90;;;;;;5073948;28;20033;-70
2021/09/18 02:46:42;;;;;;;10.82;7.85;;;15.30;99.90;;;;;;5073644;28;20091;-70
2021/09/18 02:49:07;;;;;;;13.45;7.72;;;15.30;99.90;;;;;;5073236;28;20462;-70
2021/09/18 02:51:33;;;;;;;11.20;7.70;;;15.30;99.90;;;;;;5074086;28;20488;-70
2021/09/18 02:53:59;;;;;;;8.15;7.38;;;15.30;99.90;;;;;;5073072;28;20059;-70
2021/09/18 02:56:25;;;;;;;9.57;7.63;;;15.20;99.90;;;;;;5072522;28;20488;-70
2021/09/18 02:58:51;;;;;;;9.98;7.95;;;15.20;99.90;;;;;;5073140;28;20024;-70
2021/09/18 03:01:17;;;;;;;10.10;8.52;;;15.10;99.90;;;;;;5073687;28;20028;-71
2021/09/18 03:03:42;;;;;;;9.95;8.45;;;15.20;99.90;;;;;;5073642;28;20056;-70
2021/09/18 03:06:08;;;;;;;9.70;7.10;;;15.20;99.90;;;;;;5071410;28;20045;-71
2021/09/18 03:08:34;;;;;;;10.50;8.43;;;15.10;99.90;;;;;;5073950;28;20054;-70
2021/09/18 03:10:59;;;;;;;11.55;7.93;;;15.10;99.90;;;;;;5071397;28;20447;-70
2021/09/18 03:13:25;;;;;;;14.18;8.93;;;15.10;99.90;;;;;;5073188;28;20415;-70
2021/09/18 03:15:50;;;;;;;9.52;7.90;;;15.00;99.90;;;;;;5071370;28;20101;-70
2021/09/18 03:18:16;;;;;;;12.68;8.27;;;15.10;99.90;;;;;;5071976;28;20054;-70
2021/09/18 03:20:42;;;;;;;9.88;8.20;;;15.00;99.90;;;;;;5072968;28;20079;-69
2021/09/18 03:23:08;;;;;;;12.18;8.57;;;15.00;99.90;;;;;;5070886;28;20060;-70
2021/09/18 03:25:34;;;;;;;10.90;9.30;;;15.00;99.90;;;;;;5073357;28;20032;-71
2021/09/18 03:28:00;;;;;;;11.77;8.70;;;15.00;99.90;;;;;;5071294;28;20052;-71
2021/09/18 03:30:26;;;;;;;12.15;9.50;;;15.00;99.90;;;;;;5071920;28;20407;-70
2021/09/18 03:32:52;;;;;;;10.93;7.95;;;14.90;99.90;;;;;;5072561;28;20122;-71
2021/09/18 03:35:17;;;;;;;11.82;8.88;;;14.90;99.90;;;;;;5073384;28;20162;-71
2021/09/18 03:37:43;;;;;;;11.20;8.82;;;15.00;99.90;;;;;;5072811;28;20025;-70
2021/09/18 03:40:11;;;;;;;11.27;8.95;;;15.00;99.90;;;;;;5072818;28;20055;-70
2021/09/18 03:42:36;;;;;;;12.90;8.55;;;15.00;99.90;;;;;;5073016;28;20078;-70
2021/09/18 03:45:04;;;;;;;13.32;7.72;;;15.00;99.90;;;;;;5072225;28;20060;-71
2021/09/18 03:47:29;;;;;;;10.40;9.27;;;15.00;99.90;;;;;;5073192;28;20044;-70
2021/09/18 03:49:55;;;;;;;14.20;9.82;;;15.00;99.90;;;;;;5071187;28;20052;-71
2021/09/18 03:52:21;;;;;;;11.45;9.48;;;15.00;99.90;;;;;;5072810;28;20055;-70
2021/09/18 03:54:47;;;;;;;17.70;10.20;;;15.00;99.90;;;;;;5072855;28;20110;-72
2021/09/18 03:57:13;;;;;;;15.80;10.30;;;14.90;99.90;;;;;;5072733;28;20564;-70
2021/09/18 03:59:38;;;;;;;19.55;10.93;;;14.90;99.90;;;;;;5071472;28;20029;-70
2021/09/18 04:02:04;;;;;;;13.27;11.00;;;14.60;99.90;;;;;;5072244;28;20115;-70
2021/09/18 04:04:29;;;;;;;14.20;11.65;;;14.50;99.90;;;;;;5072742;28;20028;-70
2021/09/18 04:06:55;;;;;;;17.77;11.93;;;14.40;99.90;;;;;;5070608;28;20127;-70
2021/09/18 04:09:21;;;;;;;19.17;12.57;;;14.50;99.90;;;;;;5072762;28;20064;-71
2021/09/18 04:11:47;;;;;;;23.55;14.15;;;14.50;99.90;;;;;;5071026;28;20500;-70
2021/09/18 04:14:12;;;;;;;22.67;15.45;;;14.50;99.90;;;;;;5072015;28;20021;-70
2021/09/18 04:16:38;;;;;;;24.40;15.88;;;14.40;99.90;;;;;;5071066;28;20032;-69
2021/09/18 04:19:03;;;;;;;26.58;15.43;;;14.50;99.90;;;;;;5071837;28;20126;-69
2021/09/18 04:21:29;;;;;;;19.05;13.27;;;14.60;99.90;;;;;;5072421;28;20025;-68
2021/09/18 04:23:55;;;;;;;26.20;15.43;;;14.70;99.90;;;;;;5071413;28;20102;-69
2021/09/18 04:26:20;;;;;;;24.05;15.15;;;14.70;99.90;;;;;;5071037;28;20064;-69
2021/09/18 04:28:46;;;;;;;21.80;13.88;;;14.80;99.90;;;;;;5071723;28;20020;-69
2021/09/18 04:31:12;;;;;;;25.48;16.52;;;14.80;99.90;;;;;;5071205;28;20462;-69
2021/09/18 04:33:37;;;;;;;27.33;17.52;;;14.80;99.90;;;;;;5070695;28;20040;-69
2021/09/18 04:36:03;;;;;;;26.10;15.68;;;14.80;99.90;;;;;;5070130;28;20039;-69
2021/09/18 04:38:29;;;;;;;26.30;16.80;;;14.80;99.90;;;;;;5071986;28;20086;-69
2021/09/18 04:40:55;;;;;;;23.88;16.10;;;14.80;99.90;;;;;;5071282;28;20087;-69
2021/09/18 04:43:21;;;;;;;19.35;13.80;;;14.70;99.90;;;;;;5071998;28;20032;-69
2021/09/18 04:45:46;;;;;;;17.25;12.82;;;14.70;99.90;;;;;;5071919;28;20424;-69
2021/09/18 04:48:12;;;;;;;15.30;11.10;;;14.60;99.90;;;;;;5071121;28;20033;-70
2021/09/18 04:50:38;;;;;;;15.05;10.80;;;14.70;99.90;;;;;;5070369;28;20097;-69
2021/09/18 04:53:03;;;;;;;28.05;11.57;;;14.60;99.90;;;;;;5069624;28;20438;-69
2021/09/18 04:55:29;;;;;;;22.52;13.02;;;14.60;99.90;;;;;;5070287;28;20044;-69
2021/09/18 04:57:54;;;;;;;18.13;12.52;;;14.30;99.90;;;;;;5069781;28;20436;-70
2021/09/18 05:00:20;;;;;;;24.55;12.43;;;14.40;99.90;;;;;;5070109;28;20432;-70
2021/09/18 05:02:46;;;;;;;19.85;13.13;;;14.60;99.90;;;;;;5071596;28;20032;-69
2021/09/18 05:05:11;;;;;;;22.08;12.55;;;14.50;99.90;;;;;;5070949;28;20454;-70
2021/09/18 05:07:37;;;;;;;19.83;12.75;;;14.40;99.90;;;;;;5071838;28;20025;-70
2021/09/18 05:10:03;;;;;;;23.02;14.05;;;14.50;99.90;;;;;;5071054;28;20027;-70
2021/09/18 05:12:29;;;;;;;18.15;13.02;;;14.50;99.90;;;;;;5071193;28;20040;-69
2021/09/18 05:14:55;;;;;;;19.52;13.55;;;14.40;99.90;;;;;;5069553;28;20017;-70
2021/09/18 05:17:20;;;;;;;21.63;12.88;;;14.40;99.90;;;;;;5070061;28;20154;-70
2021/09/18 05:19:46;;;;;;;21.90;15.18;;;14.50;99.90;;;;;;5071619;28;20130;-69
2021/09/18 05:22:12;;;;;;;17.02;12.73;;;14.60;99.90;;;;;;5070751;28;20475;-69
2021/09/18 05:24:37;;;;;;;23.25;15.32;;;14.60;99.90;;;;;;5071585;28;20467;-71
2021/09/18 05:27:05;;;;;;;20.80;13.60;;;14.50;99.90;;;;;;5070325;28;20024;-70
2021/09/18 05:29:31;;;;;;;15.52;11.98;;;14.50;99.90;;;;;;5069955;28;20054;-70
2021/09/18 05:31:56;;;;;;;20.02;13.50;;;14.60;99.90;;;;;;5070795;28;20032;-71
2021/09/18 05:34:22;;;;;;;20.15;12.80;;;14.70;99.90;;;;;;5070046;28;20025;-70
2021/09/18 05:36:47;;;;;;;20.25;11.65;;;14.60;99.90;;;;;;5071244;28;20328;-70
2021/09/18 05:39:13;;;;;;;23.50;13.48;;;14.70;99.90;;;;;;5070261;28;20430;-70
2021/09/18 05:41:39;;;;;;;20.30;12.82;;;14.60;99.90;;;;;;5070833;28;20044;-70
2021/09/18 05:44:04;;;;;;;21.70;12.57;;;14.70;99.90;;;;;;5070384;28;20047;-71
2021/09/18 05:46:30;;;;;;;15.80;11.60;;;14.70;99.90;;;;;;5070820;28;20036;-70
2021/09/18 05:48:56;;;;;;;19.27;11.88;;;14.80;99.90;;;;;;5070281;28;20386;-71
2021/09/18 05:51:21;;;;;;;18.55;13.05;;;14.70;99.90;;;;;;5069535;28;20067;-70
2021/09/18 05:53:47;;;;;;;20.58;13.93;;;14.70;99.90;;;;;;5070595;28;20032;-70
2021/09/18 05:56:13;;;;;;;20.63;12.65;;;14.70;99.90;;;;;;5070236;28;20051;-70
2021/09/18 05:58:38;;;;;;;22.13;14.52;;;14.80;99.90;;;;;;5070784;28;20135;-70
2021/09/18 06:01:04;;;;;;;21.08;14.65;;;14.90;99.90;;;;;;5070085;28;20389;-71
2021/09/18 06:03:30;;;;;;;20.23;14.77;;;15.00;99.90;;;;;;5070739;28;20078;-69
2021/09/18 06:05:55;;;;;;;20.73;13.75;;;14.90;99.90;;;;;;5070389;28;20359;-71
2021/09/18 06:08:22;;;;;;;19.70;13.30;;;15.00;99.90;;;;;;5070589;28;20098;-70
2021/09/18 06:10:48;;;;;;;21.20;15.27;;;15.10;99.90;;;;;;5069724;28;20439;-70
2021/09/18 06:13:13;;;;;;;18.70;12.95;;;15.10;99.90;;;;;;5068920;28;20028;-70
2021/09/18 06:15:39;;;;;;;17.08;13.00;;;15.20;99.90;;;;;;5069400;28;20127;-70
2021/09/18 06:18:05;;;;;;;14.90;11.10;;;15.20;99.90;;;;;;5068803;28;20035;-70
2021/09/18 06:20:31;;;;;;;14.20;11.38;;;15.30;99.90;;;;;;5069073;28;20505;-69
2021/09/18 06:22:56;;;;;;;14.40;11.95;;;15.40;99.90;;;;;;5070051;28;20407;-71
2021/09/18 06:25:22;;;;;;;16.90;11.95;;;15.50;99.90;;;;;;5070654;28;20025;-69
2021/09/18 06:27:48;;;;;;;15.57;10.95;;;15.50;99.90;;;;;;5070719;28;20195;-70
2021/09/18 06:30:14;;;;;;;14.57;11.63;;;15.60;99.90;;;;;;5069727;28;20385;-70
2021/09/18 06:32:41;;;;;;;13.63;10.98;;;15.60;99.90;;;;;;5069402;28;20162;-70
2021/09/18 06:35:07;;;;;;;12.15;10.25;;;15.70;99.90;;;;;;5068643;28;20463;-70
2021/09/18 06:37:39;;;;;;;14.40;11.15;;;15.50;99.90;;;;;;5069880;28;20032;-70
2021/09/18 06:40:05;;;;;;;15.60;10.70;;;15.40;99.90;;;;;;5070007;28;20025;-71
2021/09/18 06:42:31;;;;;;;10.85;9.75;;;15.30;99.90;;;;;;5069327;28;20465;-70
2021/09/18 06:44:56;;;;;;;10.60;9.50;;;15.40;99.90;;;;;;5070546;28;20060;-70
2021/09/18 06:47:22;;;;;;;8.55;7.53;;;15.60;99.90;;;;;;5068714;28;20028;-71
2021/09/18 06:49:47;;;;;;;11.80;9.10;;;15.90;99.90;;;;;;5070687;28;20032;-70
2021/09/18 06:52:13;;;;;;;11.32;7.97;;;16.10;99.90;;;;;;5070878;28;20037;-71
2021/09/18 06:54:39;;;;;;;8.55;7.47;;;16.30;99.90;;;;;;5072566;28;20043;-71
2021/09/18 06:57:06;;;;;;;14.35;9.25;;;16.40;99.90;;;;;;5072256;28;20088;-71
2021/09/18 06:59:32;;;;;;;10.80;9.60;;;16.20;99.90;;;;;;5074287;28;20469;-71
2021/09/18 07:01:58;;;;;;;10.68;8.80;;;16.20;99.90;;;;;;5078641;28;20052;-68
2021/09/18 07:04:23;;;;;;;11.57;9.57;;;15.90;99.90;;;;;;5073777;28;20089;-71
2021/09/18 07:06:49;;;;;;;19.33;10.52;;;15.80;99.90;;;;;;5087100;28;20036;-69
2021/09/18 07:09:15;;;;;;;21.85;13.10;;;15.90;99.90;;;;;;5092196;28;20469;-68
2021/09/18 07:11:40;;;;;;;19.63;12.50;;;16.00;99.90;;;;;;5093913;28;20021;-64
2021/09/18 07:14:06;;;;;;;12.15;6.95;;;16.30;99.90;;;;;;5092045;28;20044;-47
2021/09/18 07:16:32;;;;;;;7.63;5.30;;;17.20;99.90;;;;;;5092221;28;20116;-47
2021/09/18 07:18:58;;;;;;;7.70;6.18;;;18.20;99.90;;;;;;5073655;28;20078;-48
2021/09/18 07:21:23;;;;;;;9.25;6.45;;;18.60;99.90;;;;;;5081078;28;20031;-49
2021/09/18 07:23:49;;;;;;;8.95;5.93;;;19.00;99.90;;;;;;5079402;28;20127;-50
2021/09/18 07:26:14;;;;;;;11.13;7.25;;;19.20;99.90;;;;;;5073066;28;20029;-48
2021/09/18 07:28:40;;;;;;;8.82;6.60;;;19.40;99.90;;;;;;5080303;28;20024;-49
2021/09/18 07:31:06;;;;;;;10.43;7.55;;;19.70;99.90;;;;;;5092301;28;20384;-47
2021/09/18 07:33:36;;;;;;;12.60;6.68;;;19.90;99.90;;;;;;5093205;28;20085;-47
2021/09/18 07:36:03;;;;;;;11.10;6.97;;;19.90;99.90;;;;;;5092871;28;20485;-48
2021/09/18 07:38:29;;;;;;;13.15;7.65;;;20.00;99.90;;;;;;5093606;28;20071;-48
2021/09/18 07:40:56;;;;;;;17.35;7.30;;;20.40;99.90;;;;;;5093074;28;20052;-48
2021/09/18 07:43:23;;;;;;;7.80;6.50;;;20.40;99.90;;;;;;5092651;28;20028;-47
2021/09/18 07:45:49;;;;;;;7.38;6.40;;;20.50;99.90;;;;;;5093192;28;20028;-47
2021/09/18 07:48:15;;;;;;;7.28;6.57;;;20.70;99.90;;;;;;5092461;28;20089;-48
2021/09/18 07:50:41;;;;;;;7.63;6.78;;;20.90;99.90;;;;;;5093151;28;20024;-48
2021/09/18 07:53:07;;;;;;;6.93;6.28;;;20.90;99.90;;;;;;5090626;28;20054;-48
2021/09/18 07:55:33;;;;;;;9.95;7.25;;;20.90;99.90;;;;;;5092129;28;20031;-48
2021/09/18 07:57:59;;;;;;;10.55;6.15;;;21.20;99.90;;;;;;5081335;28;20120;-46
2021/09/18 08:00:25;;;;;;;9.85;6.10;;;21.30;99.90;;;;;;5075489;28;20469;-48
2021/09/18 08:02:52;;;;;;;10.23;4.85;;;21.80;99.90;;;;;;5084485;28;20410;-47
2021/09/18 08:05:19;;;;;;;7.85;4.85;;;22.10;99.90;;;;;;5091206;28;20042;-47
2021/09/18 08:07:44;;;;;;;6.65;4.45;;;22.30;99.90;;;;;;5091122;28;20473;-47
2021/09/18 08:10:13;;;;;;;6.10;4.97;;;22.60;99.90;;;;;;5090391;28;20040;-47
2021/09/18 08:12:39;;;;;;;15.23;6.40;;;22.70;99.90;;;;;;5091377;28;20024;-48
2021/09/18 08:15:06;;;;;;;5.85;5.25;;;22.80;99.90;;;;;;5090295;28;20028;-48
2021/09/18 08:17:32;;;;;;;24.23;6.13;;;22.80;99.90;;;;;;5090609;28;20036;-48
2021/09/18 08:19:58;;;;;;;6.72;5.60;;;22.90;99.90;;;;;;5091354;28;20039;-47
2021/09/18 08:22:24;;;;;;;9.30;6.68;;;23.10;99.90;;;;;;5089914;28;20028;-47
2021/09/18 08:24:49;;;;;;;11.98;6.68;;;23.10;99.90;;;;;;5091497;28;20083;-48
2021/09/18 08:27:15;;;;;;;10.63;6.95;;;23.30;99.90;;;;;;5088256;28;20180;-48
2021/09/18 08:29:41;;;;;;;7.28;5.93;;;23.50;99.70;;;;;;5091476;28;20039;-47
2021/09/18 08:32:06;;;;;;;9.57;6.78;;;23.70;99.60;;;;;;5090252;28;20028;-48
2021/09/18 08:34:32;;;;;;;12.43;7.13;;;23.50;99.60;;;;;;5089951;28;20052;-47
2021/09/18 08:36:58;;;;;;;11.45;7.65;;;23.70;99.40;;;;;;5090181;28;20093;-47
2021/09/18 08:39:23;;;;;;;7.18;6.47;;;23.90;98.90;;;;;;5071684;28;20299;-47
2021/09/18 08:41:49;;;;;;;9.65;5.18;;;24.00;99.00;;;;;;5086779;28;20080;-48
2021/09/18 08:44:15;;;;;;;8.45;5.78;;;23.80;99.30;;;;;;5089442;28;20036;-48
2021/09/18 08:46:42;;;;;;;8.85;6.05;;;24.20;99.10;;;;;;5089885;28;20170;-47
2021/09/18 08:49:09;;;;;;;10.02;8.18;;;24.30;98.50;;;;;;5088711;28;20047;-47
2021/09/18 08:51:36;;;;;;;7.05;6.15;;;24.00;98.10;;;;;;5090979;28;20059;-47
2021/09/18 08:54:04;;;;;;;6.60;5.65;;;24.30;98.50;;;;;;5091348;28;20028;-47
2021/09/18 08:56:31;;;;;;;9.15;6.00;;;24.30;98.10;;;;;;5071643;28;20131;-47
2021/09/18 08:58:57;;;;;;;9.23;6.82;;;24.50;98.00;;;;;;5070893;28;20113;-47
2021/09/18 09:01:23;;;;;;;7.85;5.93;;;24.70;98.20;;;;;;5087247;28;20028;-55
2021/09/18 09:04:01;;;;;;;10.35;9.15;;;25.00;97.40;;;;;;5083373;28;20078;-47
2021/09/18 09:06:50;;;;;;;10.13;8.20;;;24.80;97.50;;;;;;5090493;28;20032;-48
2021/09/18 09:09:16;;;;;;;11.43;7.32;;;24.60;97.30;;;;;;5090073;28;20081;-47
2021/09/18 09:11:51;;;;;;;8.98;6.80;;;24.90;97.50;;;;;;5090592;28;20070;-48
2021/09/18 09:14:17;;;;;;;11.38;8.00;;;24.80;97.60;;;;;;5088326;28;20077;-47
2021/09/18 09:16:55;;;;;;;13.98;8.00;;;25.30;97.00;;;;;;5069194;28;20041;-48
2021/09/18 09:19:21;;;;;;;9.50;7.00;;;25.50;96.70;;;;;;5069784;28;20097;-48
2021/09/18 09:21:49;;;;;;;12.63;8.57;;;25.70;96.70;;;;;;5069737;28;20439;-48
2021/09/18 09:24:17;;;;;;;11.07;8.63;;;25.80;96.50;;;;;;5067321;28;20102;-49
2021/09/18 09:27:13;;;;;;;7.68;6.28;;;25.90;96.70;;;;;;5068581;28;20029;-48
2021/09/18 09:29:54;;;;;;;12.45;8.40;;;26.20;96.60;;;;;;5090880;28;20335;-47
2021/09/18 09:32:31;;;;;;;;;;;26.20;95.90;;;;;;5078915;28;20111;-47
2021/09/18 09:35:00;;;;;;;16.48;12.05;;;26.30;95.60;;;;;;5110211;28;20361;-47
2021/09/18 09:37:25;;;;;;;17.73;14.45;;;26.40;95.50;;;;;;5101691;28;20358;-48
2021/09/18 09:39:57;;;;;;;15.45;11.82;;;26.20;95.30;;;;;;5090044;28;20024;-47
2021/09/18 09:42:29;;;;;;;13.65;12.25;;;26.10;95.80;;;;;;5089617;28;20495;-48
2021/09/18 09:45:11;;;;;;;16.15;14.25;;;25.90;95.30;;;;;;5092596;28;20492;-46
2021/09/18 09:47:37;;;;;;;18.98;13.93;;;26.00;95.70;;;;;;5089128;28;20028;-47
2021/09/18 09:50:03;;;;;;;18.90;14.90;;;26.10;95.60;;;;;;5092898;28;20039;-48
2021/09/18 09:52:30;;;;;;;20.02;13.43;;;26.20;95.40;;;;;;5097943;28;20035;-48
2021/09/18 09:55:05;;;;;;;19.88;14.38;;;26.60;94.80;;;;;;5086901;28;20050;-48
2021/09/18 09:57:31;;;;;;;19.25;15.75;;;26.60;95.00;;;;;;5090900;28;20055;-48
2021/09/18 10:00:04;;;;;;;13.27;11.88;;;26.60;94.90;;;;;;5090493;28;20034;-47
2021/09/18 10:02:30;;;;;;;15.30;13.02;;;26.60;94.30;;;;;;5075703;28;20028;-46
2021/09/18 10:04:56;;;;;;;19.38;14.18;;;26.70;94.70;;;;;;5100851;28;20111;-47
2021/09/18 10:07:22;;;;;;;21.38;17.48;;;27.00;93.60;;;;;;5100608;28;20094;-47
2021/09/18 10:09:48;;;;;;;17.42;15.02;;;26.90;93.60;;;;;;5095391;28;20456;-48
2021/09/18 10:12:15;;;;;;;21.27;17.88;;;26.90;93.90;;;;;;5105202;28;20154;-47
2021/09/18 10:14:51;;;;;;;21.00;18.17;;;26.80;93.70;;;;;;5095243;28;20050;-48
2021/09/18 10:17:17;;;;;;;20.40;14.63;;;26.70;94.70;;;;;;5107975;28;20371;-47
2021/09/18 10:25:19;;;;;;;18.05;15.82;;;26.80;94.00;;;;;;5089360;28;20101;-48
2021/09/18 10:28:15;;;;;;;22.65;16.00;;;27.10;93.80;;;;;;5093456;28;20064;-47
2021/09/18 10:30:51;;;;;;;23.45;17.55;;;27.20;93.60;;;;;;5093606;28;20044;-47
2021/09/18 10:33:44;;;;;;;23.08;20.48;;;27.50;93.70;;;;;;5093152;28;20173;-47
2021/09/18 10:36:11;;;;;;;31.20;21.50;;;27.50;93.10;;;;;;5093164;28;20036;-59
2021/09/18 10:38:49;;;;;;;22.08;18.45;;;27.20;93.20;;;;;;5093302;28;20438;-47
2021/09/18 10:41:20;;;;;;;22.33;19.85;;;26.70;93.50;;;;;;5082820;28;20110;-47
2021/09/18 10:44:01;;;;;;;19.17;13.70;;;26.70;93.50;;;;;;5073189;28;20032;-47
2021/09/18 10:46:53;;;;;;;18.52;13.45;;;26.80;94.10;;;;;;5072316;28;20111;-48
2021/09/18 10:49:34;;;;;;;25.48;17.73;;;27.00;93.60;;;;;;5072089;28;20033;-48
2021/09/18 10:52:20;;;;;;;14.98;11.60;;;27.30;93.10;;;;;;5073454;28;20024;-55
2021/09/18 10:57:42;;;;;;;;;;;27.50;92.70;;;;;;5087823;28;20047;-48
2021/09/18 11:00:14;;;;;;;24.43;20.30;;;27.10;92.10;;;;;;5088652;28;19911;-48
2021/09/18 11:02:54;;;;;;;19.48;16.83;;;26.90;92.60;;;;;;5090011;28;20375;-49
2021/09/18 11:05:22;;;;;;;21.42;15.85;;;27.10;92.40;;;;;;5090069;28;20115;-48
2021/09/18 11:08:02;;;;;;;17.38;14.90;;;27.40;92.60;;;;;;5090913;28;20097;-48
2021/09/18 11:10:28;;;;;;;19.02;17.02;;;27.50;92.20;;;;;;5090430;28;20032;-49
2021/09/18 11:13:09;;;;;;;24.23;18.25;;;27.60;91.70;;;;;;5091635;28;20020;-47
2021/09/18 11:15:39;;;;;;;16.67;14.00;;;27.40;92.10;;;;;;5090857;28;20036;-47
2021/09/18 11:18:09;;;;;;;15.40;13.75;;;27.60;91.80;;;;;;5091452;28;20031;-48
2021/09/18 11:20:36;;;;;;;17.65;15.50;;;27.70;91.10;;;;;;5090772;28;20031;-47
2021/09/18 11:23:03;;;;;;;21.05;16.17;;;27.70;91.40;;;;;;5091498;28;20469;-48
2021/09/18 11:25:35;;;;;;;15.38;13.73;;;27.60;91.10;;;;;;5105890;28;20036;-49
2021/09/18 11:28:01;;;;;;;17.35;13.65;;;27.30;91.60;;;;;;5109278;28;20072;-47
2021/09/18 11:30:44;;;;;;;16.25;14.57;;;27.20;91.80;;;;;;5111241;28;20042;-48
2021/09/18 11:33:11;;;;;;;16.27;14.57;;;27.60;91.50;;;;;;5110214;28;20058;-47
2021/09/18 11:35:38;;;;;;;15.18;13.57;;;27.70;91.10;;;;;;5111435;28;20107;-48
2021/09/18 11:38:06;;;;;;;15.82;12.45;;;27.40;91.20;;;;;;5108734;28;20028;-48
2021/09/18 11:40:34;;;;;;;14.68;11.25;;;27.60;91.30;;;;;;5110102;28;20028;-48
2021/09/18 11:43:00;;;;;;;12.48;10.60;;;27.60;90.80;;;;;;5099054;27;20029;-48
2021/09/18 11:45:27;;;;;;;13.82;11.32;;;27.60;91.30;;;;;;5081925;28;20039;-50
2021/09/18 11:47:56;;;;;;;17.77;14.52;;;27.40;90.90;;;;;;5092080;28;20027;-51
2021/09/18 11:50:28;;;;;;;13.40;11.32;;;27.30;90.80;;;;;;5089650;28;20020;-47
2021/09/18 11:52:57;;;;;;;14.32;11.68;;;27.30;91.40;;;;;;5090597;28;20458;-48
2021/09/18 11:55:31;;;;;;;14.73;10.25;;;27.70;90.60;;;;;;5089905;28;20036;-48
2021/09/18 11:58:00;;;;;;;11.93;9.32;;;27.70;90.80;;;;;;5088665;28;20039;-47
2021/09/18 12:00:26;;;;;;;14.02;12.00;;;27.70;90.20;;;;;;5088085;28;20020;-55
2021/09/18 12:02:59;;;;;;;10.65;7.65;;;27.70;89.50;;;;;;5090125;28;20031;-48
2021/09/18 12:05:25;;;;;;;9.90;8.90;;;27.70;90.90;;;;;;5089086;28;20032;-48
2021/09/18 12:07:51;;;;;;;10.30;9.30;;;27.80;89.80;;;;;;5091288;28;20043;-49
2021/09/18 12:10:20;;;;;;;10.77;7.63;;;27.80;90.20;;;;;;5090934;28;20069;-47
2021/09/18 12:12:51;;;;;;;10.40;7.10;;;27.90;90.40;;;;;;5091226;28;20024;-50
2021/09/18 12:15:47;;;;;;;9.05;7.97;;;28.00;90.00;;;;;;5090719;28;20020;-49
2021/09/18 12:18:27;;;;;;;8.07;7.30;;;28.10;88.70;;;;;;5069838;28;20414;-50
2021/09/18 12:20:55;;;;;;;7.87;6.40;;;28.30;88.10;;;;;;5087896;28;20028;-47
2021/09/18 12:23:21;;;;;;;8.82;6.28;;;28.40;87.50;;;;;;5088982;28;20289;-47
2021/09/18 12:26:14;;;;;;;7.65;6.15;;;28.50;85.80;;;;;;5083426;28;20046;-50
2021/09/18 12:28:40;;;;;;;6.47;5.80;;;28.70;85.10;;;;;;5065984;28;20484;-48
2021/09/18 12:31:23;;;;;;;8.73;4.93;;;28.70;84.90;;;;;;5069610;28;20104;-47
2021/09/18 12:33:50;;;;;;;9.15;6.63;;;28.50;85.40;;;;;;5080264;28;20027;-49
2021/09/18 12:36:23;;;;;;;11.15;5.57;;;28.70;85.30;;;;;;5092359;28;20504;-48
2021/09/18 12:38:49;;;;;;;8.85;5.97;;;28.80;84.90;;;;;;5088517;28;20019;-48
2021/09/18 12:41:17;;;;;;;7.00;4.80;;;29.00;84.50;;;;;;5088854;28;20051;-47
2021/09/18 12:44:05;;;;;;;6.40;4.80;;;28.90;84.70;;;;;;5089591;28;20111;-50
2021/09/18 12:46:46;;;;;;;6.40;5.80;;;29.10;83.50;;;;;;5085070;28;20024;-48
2021/09/18 12:49:12;;;;;;;4.85;4.22;;;28.90;82.70;;;;;;5084776;28;20154;-51